Time;durP1;ratioP1;P1;durP2;ratioP2;P2;SDS_P1;SDS_P2;PMS_P1;PMS_P2;Temp;Humidity;BMP_temperature;BMP_pressure;BME280_temperature;BME280_humidity;BME280_pressure;Samples;Min_cycle;Max_cycle;Signal;HPM_P1;HPM_P2
2022/12/17 13:05:52;;;;;;;69.22;30.60;;;;;;;;;;5024032;28;20068;-67
2022/12/17 13:08:22;;;;;;;67.80;28.85;;;;;;;;;;5017752;28;20029;-65
2022/12/17 13:10:48;;;;;;;64.93;28.52;;;;;;;;;;5022403;28;20128;-66
2022/12/17 13:13:22;;;;;;;70.95;30.23;;;;;;;;;;5022427;28;20034;-67
2022/12/17 13:15:50;;;;;;;71.18;30.83;;;;;;;;;;5006088;28;20029;-66
2022/12/17 13:18:34;;;;;;;80.88;32.47;;;;;;;;;;5027754;28;20045;-66
2022/12/17 13:21:01;;;;;;;77.78;31.60;;;;;;;;;;5027684;28;20025;-66
2022/12/17 13:23:28;;;;;;;77.22;30.73;;;;;;;;;;5011172;28;20079;-66
2022/12/17 13:26:12;;;;;;;66.47;28.25;;;;;;;;;;5061429;28;20575;-67
2022/12/17 13:28:38;;;;;;;69.15;29.38;;;;;;;;;;5046631;28;20025;-66
2022/12/17 13:31:05;;;;;;;70.85;28.77;;;;;;;;;;5060043;28;20029;-66
2022/12/17 13:33:46;;;;;;;63.40;29.45;;;;;;;;;;5066619;28;20028;-65
2022/12/17 13:36:26;;;;;;;71.15;30.50;;;;;;;;;;5067726;28;20024;-66
2022/12/17 13:38:54;;;;;;;65.45;29.35;;;;;;;;;;5062226;28;20035;-65
2022/12/17 13:41:21;;;;;;;71.28;29.88;;;;;;;;;;5070653;28;20502;-66
2022/12/17 13:43:55;;;;;;;68.43;29.33;;;;;;;;;;5070876;28;20032;-66
2022/12/17 13:46:21;;;;;;;66.65;27.70;;;;;;;3.04;nan;100989.81;5048611;28;20032;-66
2022/12/17 13:48:53;;;;;;;67.80;27.55;;;;;;;;;;5069360;28;20082;-66
2022/12/17 13:51:19;;;;;;;68.47;28.50;;;;;;;;;;5065723;28;20028;-67
2022/12/17 13:53:58;;;;;;;64.07;28.00;;;;;;;;;;5065671;28;20110;-67
2022/12/17 13:56:27;;;;;;;64.25;27.73;;;;;;;;;;5067494;28;20081;-66
2022/12/17 13:58:53;;;;;;;66.38;29.27;;;;;;;;;;5065043;28;20080;-66
2022/12/17 14:01:19;;;;;;;71.90;30.85;;;;;;;;;;5066708;28;20055;-67
2022/12/17 14:03:55;;;;;;;78.28;32.67;;;;;;;;;;5064881;28;20040;-66
2022/12/17 14:06:21;;;;;;;79.55;33.00;;;;;;;;;;5066298;28;20364;-66
2022/12/17 14:08:47;;;;;;;66.68;28.25;;;;;;;;;;5059746;28;20056;-66
2022/12/17 14:13:56;;;;;;;67.28;29.13;;;;;;;;;;5062303;28;20039;-66
2022/12/17 14:16:22;;;;;;;66.93;28.25;;;;;;;;;;5064144;28;20028;-66
2022/12/17 14:18:52;;;;;;;67.57;30.25;;;;;;;;;;5066017;28;20017;-66
2022/12/17 14:21:18;;;;;;;63.17;28.38;;;;;;;;;;5059636;28;20859;-67
2022/12/17 14:23:43;;;;;;;68.68;30.40;;;;;;;;;;5048566;28;20028;-67
2022/12/17 14:26:10;;;;;;;69.22;30.60;;;;;;;;;;5045690;28;20029;-66
2022/12/17 14:28:36;;;;;;;67.97;30.27;;;;;;;;;;5061775;28;20033;-66
2022/12/17 14:31:22;;;;;;;66.97;29.60;;;;;;;;;;5060603;28;20032;-66
2022/12/17 14:33:59;;;;;;;74.45;31.88;;;;;;;;;;5063418;28;20064;-68
2022/12/17 14:36:24;;;;;;;74.28;30.52;;;;;;;;;;5069616;28;20039;-68
2022/12/17 14:38:54;;;;;;;70.80;30.43;;;;;;;;;;5067002;28;20092;-68
2022/12/17 14:44:04;;;;;;;70.07;29.85;;;;;;;;;;5041675;28;20116;-66
2022/12/17 14:46:30;;;;;;;72.05;30.42;;;;;;;;;;5068111;28;20112;-67
2022/12/17 14:48:59;;;;;;;69.88;29.30;;;;;;;;;;5063984;28;20040;-73
2022/12/17 14:51:29;;;;;;;65.72;28.50;;;;;;;;;;5065908;28;20155;-72
2022/12/17 14:54:27;;;;;;;68.90;29.92;;;;;;;;;;5068949;28;20024;-72
2022/12/17 14:56:56;;;;;;;67.27;29.27;;;;;;;;;;5017749;28;20441;-71
2022/12/17 14:59:24;;;;;;;60.85;27.27;;;;;;;;;;5058528;28;20060;-72
2022/12/17 15:01:50;;;;;;;73.55;30.35;;;;;;;;;;5049691;28;20024;-71
2022/12/17 15:04:16;;;;;;;73.10;30.95;;;;;;;;;;5067799;28;20025;-71
2022/12/17 15:06:41;;;;;;;67.25;30.58;;;;;;;;;;5061864;28;20210;-71
2022/12/17 15:09:06;;;;;;;71.60;30.17;;;;;;;;;;5044733;28;20032;-71
2022/12/17 15:11:31;;;;;;;79.27;31.63;;;;;;;;;;5050575;28;20029;-72
2022/12/17 15:13:57;;;;;;;70.20;29.80;;;;;;;;;;5063536;28;20025;-71
2022/12/17 15:16:22;;;;;;;66.90;29.77;;;;;;;;;;5048816;28;20032;-71
2022/12/17 15:18:47;;;;;;;75.85;32.17;;;;;;;;;;5050284;28;20792;-71
2022/12/17 15:21:12;;;;;;;65.90;28.17;;;;;;;;;;5034947;28;20025;-71
2022/12/17 15:23:39;;;;;;;64.20;29.63;;;;;;;;;;5047007;28;20107;-71
2022/12/17 15:26:04;;;;;;;69.75;29.63;;;;;;;;;;5043737;28;20289;-72
2022/12/17 15:28:29;;;;;;;67.35;28.60;;;;;;;;;;5065469;28;20408;-71
2022/12/17 15:30:54;;;;;;;64.43;27.20;;;;;;;;;;5062097;28;20092;-72
2022/12/17 15:33:20;;;;;;;59.53;27.20;;;;;;;;;;5047312;28;20632;-72
2022/12/17 15:35:45;;;;;;;71.40;29.17;;;;;;;;;;5063385;28;21662;-73
2022/12/17 15:38:11;;;;;;;59.83;27.53;;;;;;;;;;5064004;28;20043;-73
2022/12/17 15:40:37;;;;;;;66.90;31.00;;;;;;;;;;5060017;28;20040;-73
2022/12/17 15:43:11;;;;;;;67.55;30.25;;;;;;;;;;5061618;28;20028;-72
2022/12/17 15:45:37;;;;;;;67.78;29.70;;;;;;;;;;5063782;28;20028;-72
2022/12/17 15:48:03;;;;;;;70.55;30.08;;;;;;;;;;5062681;28;20027;-72
2022/12/17 15:50:28;;;;;;;68.03;29.03;;;;;;;;;;5050784;28;20058;-73
2022/12/17 15:52:53;;;;;;;75.50;32.65;;;;;;;;;;5069362;28;20273;-73
2022/12/17 15:55:18;;;;;;;76.00;32.30;;;;;;;;;;5064443;28;20107;-72
2022/12/17 15:57:44;;;;;;;70.32;31.38;;;;;;;;;;5062286;28;20423;-72
2022/12/17 16:00:09;;;;;;;71.50;31.57;;;;;;;;;;5066215;28;20027;-73
2022/12/17 16:02:35;;;;;;;68.15;30.80;;;;;;;;;;5061729;28;20037;-73
2022/12/17 16:05:00;;;;;;;74.40;31.10;;;;;;;;;;5043618;28;20071;-72
2022/12/17 16:07:25;;;;;;;71.03;31.80;;;;;;;;;;5063452;28;20387;-71
2022/12/17 16:09:50;;;;;;;68.40;30.08;;;;;;;;;;5065683;28;20371;-72
2022/12/17 16:12:16;;;;;;;69.47;30.17;;;;;;;;;;5043373;28;20029;-72
2022/12/17 16:14:41;;;;;;;76.20;31.30;;;;;;;;;;5068341;28;20025;-72
2022/12/17 16:17:06;;;;;;;66.47;29.33;;;;;;;;;;5065460;28;20070;-71
2022/12/17 16:19:31;;;;;;;66.47;28.37;;;;;;;;;;5061373;28;20752;-72
2022/12/17 16:21:57;;;;;;;65.00;28.60;;;;;;;;;;5065809;28;20024;-72
2022/12/17 16:24:22;;;;;;;64.00;29.40;;;;;;;;;;5045289;28;20346;-72
2022/12/17 16:26:47;;;;;;;69.77;30.13;;;;;;;;;;5049912;28;20021;-72
2022/12/17 16:29:12;;;;;;;67.67;29.40;;;;;;;;;;5065559;28;20032;-72
2022/12/17 16:31:38;;;;;;;69.80;29.53;;;;;;;;;;5062677;28;20035;-72
2022/12/17 16:34:07;;;;;;;63.42;27.38;;;;;;;;;;5048694;28;20296;-72
2022/12/17 16:36:32;;;;;;;63.30;27.75;;;;;;;;;;5060078;28;20033;-72
2022/12/17 16:38:57;;;;;;;65.57;28.23;;;;;;;;;;5063578;28;20032;-73
2022/12/17 16:41:23;;;;;;;70.53;29.52;;;;;;;;;;5065929;28;20090;-72
2022/12/17 16:43:48;;;;;;;66.60;29.08;;;;;;;;;;5061892;28;20673;-72
2022/12/17 16:46:25;;;;;;;62.80;29.13;;;;;;;;;;5059949;28;20083;-70
2022/12/17 16:48:50;;;;;;;64.18;28.17;;;;;;;;;;5048027;28;20025;-71
2022/12/17 16:51:16;;;;;;;65.18;29.27;;;;;;;;;;5068113;28;20687;-71
2022/12/17 16:53:41;;;;;;;62.17;27.98;;;;;;;;;;5067894;28;20115;-71
2022/12/17 16:56:07;;;;;;;70.35;30.55;;;;;;;;;;5069634;28;20043;-73
2022/12/17 16:58:32;;;;;;;73.50;29.77;;;;;;;;;;5068719;28;20102;-72
2022/12/17 17:00:57;;;;;;;70.60;29.23;;;;;;;;;;5067832;28;20277;-69
2022/12/17 17:03:22;;;;;;;67.87;30.67;;;;;;;;;;5051768;28;20700;-71
2022/12/17 17:05:48;;;;;;;65.10;28.57;;;;;;;;;;5043563;28;20265;-75
2022/12/17 17:08:13;;;;;;;72.87;29.27;;;;;;;;;;5070749;28;20048;-73
2022/12/17 17:10:38;;;;;;;66.80;28.83;;;;;;;;;;5066793;28;20032;-73
2022/12/17 17:13:03;;;;;;;67.93;28.13;;;;;;;;;;5067412;28;20767;-73
2022/12/17 17:15:29;;;;;;;71.30;30.75;;;;;;;;;;5066930;28;20044;-73
2022/12/17 17:17:54;;;;;;;71.32;30.45;;;;;;;;;;5069848;28;20381;-73
2022/12/17 17:20:19;;;;;;;76.30;31.33;;;;;;;;;;5050909;28;20027;-72
2022/12/17 17:22:44;;;;;;;74.63;31.57;;;;;;;;;;5067063;28;20030;-74
2022/12/17 17:25:10;;;;;;;77.03;32.30;;;;;;;;;;5045251;28;20281;-74
2022/12/17 17:27:35;;;;;;;71.55;30.38;;;;;;;;;;5051186;28;20391;-74
2022/12/17 17:30:00;;;;;;;71.93;31.17;;;;;;;;;;5064647;28;20021;-74
2022/12/17 17:32:26;;;;;;;70.00;30.63;;;;;;;;;;5051710;28;20330;-73
2022/12/17 17:34:51;;;;;;;79.45;31.73;;;;;;;;;;5049934;28;20292;-75
2022/12/17 17:37:16;;;;;;;81.40;32.50;;;;;;;;;;5070413;28;20020;-74
2022/12/17 17:39:41;;;;;;;81.28;32.70;;;;;;;;;;5064696;28;20028;-73
2022/12/17 17:42:07;;;;;;;74.83;32.20;;;;;;;;;;5063090;28;20032;-73
2022/12/17 17:44:32;;;;;;;72.80;32.35;;;;;;;;;;5066438;28;20142;-73
2022/12/17 17:46:58;;;;;;;75.55;32.42;;;;;;;;;;5069017;28;20368;-73
2022/12/17 17:49:23;;;;;;;75.88;32.53;;;;;;;;;;5048230;28;20037;-72
2022/12/17 17:51:48;;;;;;;81.03;33.80;;;;;;;;;;5044422;28;20025;-73
2022/12/17 17:54:14;;;;;;;72.43;31.33;;;;;;;;;;5064167;28;20037;-73
2022/12/17 17:56:39;;;;;;;74.80;30.90;;;;;;;;;;5070006;28;20830;-73
2022/12/17 17:59:06;;;;;;;76.15;31.98;;;;;;;;;;5064616;28;20308;-72
2022/12/17 18:01:33;;;;;;;65.15;29.00;;;;;;;;;;5067093;28;20058;-73
2022/12/17 18:03:59;;;;;;;66.53;29.38;;;;;;;;;;5046023;28;20033;-73
2022/12/17 18:06:25;;;;;;;71.68;28.38;;;;;;;;;;5042848;28;20032;-73
2022/12/17 18:08:50;;;;;;;75.78;32.25;;;;;;;;;;5060289;28;20021;-73
2022/12/17 18:11:17;;;;;;;74.57;31.63;;;;;;;;;;5056305;28;20450;-74
2022/12/17 18:13:55;;;;;;;63.95;27.55;;;;;;;;;;5060077;28;20029;-73
2022/12/17 18:16:36;;;;;;;76.30;29.08;;;;;;;;;;5057694;28;20029;-72
2022/12/17 18:19:03;;;;;;;63.97;28.10;;;;;;;;;;5043440;28;20090;-72
2022/12/17 18:21:28;;;;;;;69.93;28.83;;;;;;;;;;5046459;28;20078;-73
2022/12/17 18:23:55;;;;;;;65.10;29.35;;;;;;;;;;5064706;28;20486;-72
2022/12/17 18:26:21;;;;;;;64.10;28.10;;;;;;;;;;5046708;28;20029;-73
2022/12/17 18:28:47;;;;;;;65.32;27.40;;;;;;;;;;5063935;28;20042;-73
2022/12/17 18:31:12;;;;;;;61.80;27.42;;;;;;;;;;5064938;28;20112;-73
2022/12/17 18:33:38;;;;;;;66.07;28.93;;;;;;;;;;5064011;28;20056;-72
2022/12/17 18:36:07;;;;;;;65.60;28.77;;;;;;;;;;5062040;28;20312;-73
2022/12/17 18:38:32;;;;;;;64.88;27.83;;;;;;;;;;5057392;28;20028;-72
2022/12/17 18:41:03;;;;;;;73.83;31.33;;;;;;;;;;5060872;28;20029;-72
2022/12/17 18:43:28;;;;;;;67.88;30.45;;;;;;;;;;5045892;28;20126;-73
2022/12/17 18:45:54;;;;;;;73.40;32.23;;;;;;;;;;5059189;28;20025;-72
2022/12/17 18:48:19;;;;;;;70.80;29.87;;;;;;;;;;5046156;28;20283;-72
2022/12/17 18:50:44;;;;;;;73.80;33.08;;;;;;;;;;5058520;28;20100;-72
2022/12/17 18:53:10;;;;;;;74.97;33.50;;;;;;;;;;5059162;28;21279;-72
2022/12/17 18:55:39;;;;;;;67.25;31.02;;;;;;;;;;5044824;28;20040;-70
2022/12/17 18:58:05;;;;;;;68.25;29.52;;;;;;;;;;5063431;28;20044;-72
2022/12/17 19:00:30;;;;;;;67.35;28.67;;;;;;;;;;5062222;28;20515;-72
2022/12/17 19:02:55;;;;;;;66.97;28.73;;;;;;;;;;5048114;28;20033;-72
2022/12/17 19:05:20;;;;;;;68.57;29.37;;;;;;;;;;5064972;28;20269;-71
2022/12/17 19:07:46;;;;;;;64.33;27.57;;;;;;;;;;5066053;28;20032;-72
2022/12/17 19:10:11;;;;;;;63.67;27.07;;;;;;;;;;5060497;28;20281;-72
2022/12/17 19:12:36;;;;;;;68.60;27.60;;;;;;;;;;5059543;28;20032;-71
2022/12/17 19:15:01;;;;;;;60.80;27.48;;;;;;;;;;5060493;28;20035;-71
2022/12/17 19:17:27;;;;;;;69.90;28.05;;;;;;;;;;5059993;28;20115;-72
2022/12/17 19:19:52;;;;;;;62.77;26.17;;;;;;;;;;5045684;28;20050;-71
2022/12/17 19:22:17;;;;;;;63.23;25.67;;;;;;;;;;5059397;28;20029;-71
2022/12/17 19:24:42;;;;;;;68.67;29.00;;;;;;;;;;5047452;28;20025;-71
2022/12/17 19:27:07;;;;;;;65.70;26.83;;;;;;;;;;5065793;28;20090;-71
2022/12/17 19:29:33;;;;;;;66.27;26.97;;;;;;;;;;5068178;28;20728;-71
2022/12/17 19:31:58;;;;;;;69.20;28.40;;;;;;;;;;5065917;28;20027;-71
2022/12/17 19:34:24;;;;;;;63.45;26.65;;;;;;;;;;5065342;28;20048;-72
2022/12/17 19:36:49;;;;;;;66.70;27.23;;;;;;;;;;5063771;28;20056;-71
2022/12/17 19:39:16;;;;;;;74.05;28.85;;;;;;;;;;5048124;28;20021;-72
2022/12/17 19:41:41;;;;;;;61.83;26.58;;;;;;;;;;5063491;28;20028;-72
2022/12/17 19:44:07;;;;;;;65.05;27.33;;;;;;;;;;5062663;28;20074;-71
2022/12/17 19:46:33;;;;;;;64.53;26.17;;;;;;;;;;5061829;28;20028;-70
2022/12/17 19:48:59;;;;;;;65.78;26.80;;;;;;;;;;5065529;28;20438;-70
2022/12/17 19:51:25;;;;;;;60.72;26.83;;;;;;;;;;5039476;28;20053;-71
2022/12/17 19:53:51;;;;;;;65.38;26.63;;;;;;;;;;5061494;28;20025;-71
2022/12/17 19:56:20;;;;;;;61.33;25.40;;;;;;;;;;5060783;28;20024;-71
2022/12/17 19:58:47;;;;;;;63.83;26.85;;;;;;;;;;5063717;28;20313;-71
2022/12/17 20:01:16;;;;;;;63.17;26.40;;;;;;;;;;5062723;28;20501;-71
2022/12/17 20:03:43;;;;;;;62.58;26.08;;;;;;;;;;5062506;28;20111;-71
2022/12/17 20:06:09;;;;;;;68.15;27.45;;;;;;;;;;5062452;28;20028;-71
2022/12/17 20:08:34;;;;;;;67.28;28.13;;;;;;;;;;5062700;28;20035;-72
2022/12/17 20:11:00;;;;;;;60.92;25.98;;;;;;;;;;5059454;28;20734;-72
2022/12/17 20:13:26;;;;;;;65.50;26.80;;;;;;;;;;5058196;28;20052;-75
2022/12/17 20:15:58;;;;;;;62.40;26.50;;;;;;;;;;5058853;28;20075;-75
2022/12/17 20:18:23;;;;;;;68.82;27.17;;;;;;;;;;5058641;28;20545;-72
2022/12/17 20:20:48;;;;;;;62.53;26.80;;;;;;;;;;5041727;28;20036;-73
2022/12/17 20:23:14;;;;;;;67.50;27.53;;;;;;;;;;5067401;28;21298;-72
2022/12/17 20:25:39;;;;;;;71.63;27.20;;;;;;;;;;5065086;28;20108;-72
2022/12/17 20:28:04;;;;;;;66.80;28.30;;;;;;;;;;5068831;28;20281;-73
2022/12/17 20:30:29;;;;;;;71.47;27.97;;;;;;;;;;5070168;28;20272;-72
2022/12/17 20:32:55;;;;;;;69.63;28.10;;;;;;;;;;5066773;28;20799;-73
2022/12/17 20:35:20;;;;;;;69.33;27.73;;;;;;;;;;5071114;28;20280;-72
2022/12/17 20:37:45;;;;;;;66.35;27.25;;;;;;;;;;5068268;28;20086;-72
2022/12/17 20:40:11;;;;;;;63.40;26.93;;;;;;;;;;5068188;28;20044;-72
2022/12/17 20:42:36;;;;;;;62.50;26.33;;;;;;;;;;5052675;28;20631;-72
2022/12/17 20:45:01;;;;;;;60.07;25.17;;;;;;;;;;5049132;28;20374;-71
2022/12/17 20:47:26;;;;;;;64.80;26.40;;;;;;;;;;5049846;28;20270;-70
2022/12/17 20:49:52;;;;;;;63.33;25.90;;;;;;;;;;5046622;28;20273;-70
2022/12/17 20:52:17;;;;;;;65.47;27.73;;;;;;;;;;5050989;28;20266;-72
2022/12/17 20:54:43;;;;;;;64.15;26.05;;;;;;;;;;5070681;28;20030;-71
2022/12/17 20:57:08;;;;;;;63.07;25.67;;;;;;;;;;5063362;28;20043;-71
2022/12/17 20:59:33;;;;;;;67.93;25.37;;;;;;;;;;5046385;28;20324;-71
2022/12/17 21:01:58;;;;;;;63.70;25.23;;;;;;;;;;5044765;28;20281;-71
2022/12/17 21:04:24;;;;;;;64.65;26.63;;;;;;;;;;5046817;28;20074;-70
2022/12/17 21:06:49;;;;;;;68.57;28.27;;;;;;;;;;5045071;28;20024;-71
2022/12/17 21:09:14;;;;;;;69.60;27.37;;;;;;;;;;5061169;28;20357;-70
2022/12/17 21:11:40;;;;;;;63.45;27.08;;;;;;;;;;5061858;28;20101;-71
2022/12/17 21:14:06;;;;;;;64.75;26.20;;;;;;;;;;5065930;28;20036;-71
2022/12/17 21:16:32;;;;;;;71.35;27.02;;;;;;;;;;5062514;28;20028;-70
2022/12/17 21:18:58;;;;;;;64.03;26.27;;;;;;;;;;5061898;28;20021;-71
2022/12/17 21:21:25;;;;;;;66.57;27.00;;;;;;;;;;5057543;28;20052;-71
2022/12/17 21:23:51;;;;;;;65.55;27.17;;;;;;;;;;5062964;28;20071;-71
2022/12/17 21:26:36;;;;;;;64.32;26.48;;;;;;;;;;5060336;28;20408;-71
2022/12/17 21:29:04;;;;;;;71.47;27.52;;;;;;;;;;5067123;28;20044;-71
2022/12/17 21:31:34;;;;;;;71.43;27.05;;;;;;;;;;5068386;28;20024;-71
2022/12/17 21:34:01;;;;;;;75.50;30.02;;;;;;;;;;5063842;28;20033;-71
2022/12/17 21:36:27;;;;;;;65.88;27.50;;;;;;;;;;5068225;28;20032;-70
2022/12/17 21:38:52;;;;;;;72.00;28.52;;;;;;;;;;5065743;28;20602;-71
2022/12/17 21:41:25;;;;;;;71.93;29.67;;;;;;;;;;5062597;28;20052;-70
2022/12/17 21:43:51;;;;;;;71.70;28.83;;;;;;;;;;5063047;28;20112;-71
2022/12/17 21:46:16;;;;;;;71.95;30.23;;;;;;;;;;5065344;28;20107;-70
2022/12/17 21:48:41;;;;;;;73.73;29.43;;;;;;;;;;5069167;28;20036;-71
2022/12/17 21:51:08;;;;;;;72.30;29.50;;;;;;;;;;5051557;28;20708;-71
2022/12/17 21:53:33;;;;;;;69.22;27.27;;;;;;;;;;5062757;28;20558;-72
2022/12/17 21:56:06;;;;;;;75.53;29.48;;;;;;;;;;5050876;28;20107;-72
2022/12/17 21:58:32;;;;;;;73.47;28.60;;;;;;;;;;5063899;28;20212;-71
2022/12/17 22:00:57;;;;;;;68.80;27.92;;;;;;;;;;5064142;28;20051;-71
2022/12/17 22:03:23;;;;;;;70.43;28.23;;;;;;;;;;5066319;28;20402;-71
2022/12/17 22:05:48;;;;;;;71.55;29.05;;;;;;;;;;5045811;28;20021;-70
2022/12/17 22:08:14;;;;;;;70.77;28.97;;;;;;;;;;5063749;28;20535;-71
2022/12/17 22:10:40;;;;;;;69.38;28.13;;;;;;;;;;5063235;28;22089;-71
2022/12/17 22:15:51;;;;;;;75.03;28.55;;;;;;;;;;5069335;28;20535;-71
2022/12/17 22:18:16;;;;;;;71.20;27.73;;;;;;;;;;5049864;28;20028;-71
2022/12/17 22:20:41;;;;;;;70.47;26.27;;;;;;;;;;5045106;28;20028;-69
2022/12/17 22:23:07;;;;;;;70.50;27.15;;;;;;;;;;5066287;28;20470;-71
2022/12/17 22:25:34;;;;;;;66.80;26.63;;;;;;;;;;5048133;28;20025;-71
2022/12/17 22:28:00;;;;;;;66.40;25.77;;;;;;;;;;5062925;28;20281;-71
2022/12/17 22:33:26;;;;;;;62.88;25.63;;;;;;;;;;4986814;28;20786;-71
2022/12/17 22:35:51;;;;;;;63.73;25.60;;;;;;;;;;4985684;28;20061;-71
2022/12/17 22:38:16;;;;;;;66.45;25.13;;;;;;;;;;4965993;28;20681;-70
2022/12/17 22:40:41;;;;;;;63.77;25.53;;;;;;;;;;4985914;28;20085;-70
2022/12/17 22:45:56;;;;;;;66.05;26.45;;;;;;;;;;4982832;28;20101;-70
2022/12/17 22:48:21;;;;;;;70.28;26.58;;;;;;;;;;4972058;28;20089;-71
2022/12/17 22:50:47;;;;;;;61.20;25.03;;;;;;;;;;4983064;28;20030;-71
2022/12/17 22:53:12;;;;;;;66.80;25.60;;;;;;;;;;4983751;28;20284;-71
2022/12/17 22:55:37;;;;;;;65.72;25.58;;;;;;;;;;4983519;28;20042;-71
2022/12/17 22:58:03;;;;;;;69.78;25.95;;;;;;;;;;4971285;28;20050;-71
2022/12/17 23:00:30;;;;;;;68.25;26.30;;;;;;;;;;4972641;28;20030;-71
2022/12/17 23:02:56;;;;;;;65.22;24.33;;;;;;;;;;4984757;28;20027;-70
2022/12/17 23:05:21;;;;;;;65.97;25.25;;;;;;;;;;4972097;28;20030;-72
2022/12/17 23:07:47;;;;;;;66.07;25.67;;;;;;;;;;5034420;28;20032;-71
2022/12/17 23:10:12;;;;;;;63.03;25.15;;;;;;;;;;5067075;28;20024;-72
2022/12/17 23:12:49;;;;;;;67.72;26.88;;;;;;;;;;5058819;28;20033;-71
2022/12/17 23:15:15;;;;;;;71.03;27.35;;;;;;;;;;5067570;28;20033;-71
2022/12/17 23:17:41;;;;;;;70.53;26.58;;;;;;;;;;5067516;28;20161;-71
2022/12/17 23:20:06;;;;;;;67.47;26.40;;;;;;;;;;5064566;28;20098;-69
2022/12/17 23:22:32;;;;;;;72.28;27.17;;;;;;;;;;5067616;28;20277;-71
2022/12/17 23:24:57;;;;;;;76.37;28.57;;;;;;;;;;5047819;28;20432;-70
2022/12/17 23:27:22;;;;;;;67.70;27.13;;;;;;;;;;5066385;28;20292;-71
2022/12/17 23:29:47;;;;;;;71.00;27.97;;;;;;;;;;5065162;28;20359;-71
2022/12/17 23:32:13;;;;;;;70.60;27.13;;;;;;;;;;5049893;28;20300;-70
2022/12/17 23:34:38;;;;;;;71.23;25.83;;;;;;;;;;5068034;28;20466;-71
2022/12/17 23:37:03;;;;;;;73.05;28.55;;;;;;;;;;5048413;28;20478;-70
2022/12/17 23:39:28;;;;;;;66.13;25.00;;;;;;;;;;5050299;28;20028;-70
2022/12/17 23:41:54;;;;;;;65.23;24.73;;;;;;;;;;5066740;28;20044;-71
2022/12/17 23:44:19;;;;;;;71.83;27.07;;;;;;;;;;5064025;28;20321;-71
2022/12/17 23:46:44;;;;;;;71.87;25.60;;;;;;;;;;5066434;28;20288;-71
2022/12/17 23:49:09;;;;;;;69.97;26.10;;;;;;;;;;5068370;28;20836;-71
2022/12/17 23:51:35;;;;;;;64.23;24.87;;;;;;;;;;5067883;28;20285;-71
2022/12/17 23:54:00;;;;;;;62.43;25.53;;;;;;;;;;5068975;28;20754;-71
2022/12/17 23:56:26;;;;;;;67.10;24.88;;;;;;;;;;5066490;28;20424;-70
2022/12/17 23:58:59;;;;;;;65.85;26.67;;;;;;;;;;5063488;28;20423;-71
